Time;durP1;ratioP1;P1;durP2;ratioP2;P2;SDS_P1;SDS_P2;PMS_P1;PMS_P2;Temp;Humidity;BMP_temperature;BMP_pressure;BME280_temperature;BME280_humidity;BME280_pressure;Samples;Min_cycle;Max_cycle;Signal;HPM_P1;HPM_P2
2023/03/23 00:01:00;;;;;;;;;;;;;;;17.71;59.53;100106.56;2036324;29;20462;-55
2023/03/23 00:02:01;;;;;;;;;;;;;;;17.72;59.50;100113.56;2039555;29;19985;-56
2023/03/23 00:03:02;;;;;;;;;;;;;;;17.73;59.72;100112.38;2039153;29;20659;-56
2023/03/23 00:04:03;;;;;;;;;;;;;;;17.73;59.82;100115.09;2034207;29;19927;-56
2023/03/23 00:05:06;;;;;;;;;;;;;;;17.72;59.51;100108.09;2034050;29;19923;-55
2023/03/23 00:06:07;;;;;;;;;;;;;;;17.72;59.71;100102.63;2032970;29;19923;-55
2023/03/23 00:07:09;;;;;;;;;;;;;;;17.72;59.58;100114.34;2026757;29;19971;-55
2023/03/23 00:08:12;;;;;;;;;;;;;;;17.65;59.65;100108.94;2028380;29;20015;-55
2023/03/23 00:09:23;;;;;;;;;;;;;;;17.71;59.59;100109.28;2034675;29;19932;-56
2023/03/23 00:10:26;;;;;;;;;;;;;;;17.70;59.59;100111.22;2033011;29;20371;-55
2023/03/23 00:11:29;;;;;;;;;;;;;;;17.71;59.50;100117.47;2037487;29;19934;-55
2023/03/23 00:12:33;;;;;;;;;;;;;;;17.71;59.48;100112.00;2032463;29;19926;-55
2023/03/23 00:13:34;;;;;;;;;;;;;;;17.71;59.46;100117.47;2031478;29;19931;-56
2023/03/23 00:14:41;;;;;;;;;;;;;;;17.71;59.69;100106.56;2020853;29;19961;-56
2023/03/23 00:15:42;;;;;;;;;;;;;;;17.71;59.75;100109.28;2025305;29;19979;-55
2023/03/23 00:16:44;;;;;;;;;;;;;;;17.70;59.53;100102.25;2037705;29;19930;-55
2023/03/23 00:17:46;;;;;;;;;;;;;;;17.70;59.47;100099.53;2034425;29;19927;-54
2023/03/23 00:18:47;;;;;;;;;;;;;;;17.70;59.75;100089.38;2035183;29;19967;-55
2023/03/23 00:19:49;;;;;;;;;;;;;;;17.69;59.79;100090.59;2039429;29;19923;-57
2023/03/23 00:20:51;;;;;;;;;;;;;;;17.70;59.72;100094.84;2038674;29;20056;-56
2023/03/23 00:21:53;;;;;;;;;;;;;;;17.70;59.77;100088.59;2040068;29;19926;-56
2023/03/23 00:23:00;;;;;;;;;;;;;;;17.70;59.75;100094.84;2037401;29;19945;-55
2023/03/23 00:24:04;;;;;;;;;;;;;;;17.69;59.71;100087.84;2034617;29;20407;-56
2023/03/23 00:25:05;;;;;;;;;;;;;;;17.70;59.69;100083.13;2039752;29;20296;-56
2023/03/23 00:26:08;;;;;;;;;;;;;;;17.68;59.74;100080.81;2036787;29;19927;-55
2023/03/23 00:27:08;;;;;;;;;;;;;;;17.69;59.58;100076.94;2035066;29;19922;-56
2023/03/23 00:28:12;;;;;;;;;;;;;;;17.70;59.44;100083.13;2039199;29;19962;-56
2023/03/23 00:29:14;;;;;;;;;;;;;;;17.69;59.55;100087.06;2039120;29;19930;-55
2023/03/23 00:30:17;;;;;;;;;;;;;;;17.69;59.40;100092.53;2036485;29;19930;-55
2023/03/23 00:31:19;;;;;;;;;;;;;;;17.69;59.74;100098.00;2038278;29;19922;-55
2023/03/23 00:32:26;;;;;;;;;;;;;;;17.70;59.71;100091.34;2035342;29;19922;-55
2023/03/23 00:33:29;;;;;;;;;;;;;;;17.69;59.70;100093.31;2039772;29;19930;-56
2023/03/23 00:34:34;;;;;;;;;;;;;;;17.68;59.68;100080.81;2043263;29;19923;-56
2023/03/23 00:35:35;;;;;;;;;;;;;;;17.69;59.72;100087.84;2034800;29;19930;-55
2023/03/23 00:36:42;;;;;;;;;;;;;;;17.68;59.46;100080.03;2031452;29;19927;-55
2023/03/23 00:37:47;;;;;;;;;;;;;;;17.68;59.60;100078.09;2023460;29;19927;-56
2023/03/23 00:38:47;;;;;;;;;;;;;;;17.67;59.82;100076.56;2027691;29;19923;-55
2023/03/23 00:39:51;;;;;;;;;;;;;;;17.67;59.59;100075.78;2034235;29;20010;-56
2023/03/23 00:40:52;;;;;;;;;;;;;;;17.68;59.67;100077.31;2037217;29;19933;-55
2023/03/23 00:42:00;;;;;;;;;;;;;;;17.68;59.59;100085.50;2027449;29;19954;-56
2023/03/23 00:43:03;;;;;;;;;;;;;;;17.67;59.59;100087.47;2028441;29;19930;-55
2023/03/23 00:44:05;;;;;;;;;;;;;;;17.67;59.77;100078.50;2037730;29;19926;-55
2023/03/23 00:45:10;;;;;;;;;;;;;;;17.67;59.49;100084.75;2038554;29;19934;-55
2023/03/23 00:46:13;;;;;;;;;;;;;;;17.67;59.52;100081.22;2035218;29;19934;-56
2023/03/23 00:47:14;;;;;;;;;;;;;;;17.67;59.69;100084.75;2034127;29;20324;-55
2023/03/23 00:48:15;;;;;;;;;;;;;;;17.66;59.48;100088.63;2039586;29;19926;-55
2023/03/23 00:49:17;;;;;;;;;;;;;;;17.66;59.58;100080.44;2038467;29;19946;-55
2023/03/23 00:50:19;;;;;;;;;;;;;;;17.67;59.67;100073.03;2030403;29;19996;-55
2023/03/23 00:51:20;;;;;;;;;;;;;;;17.67;59.66;100078.50;2028775;29;19976;-55
2023/03/23 00:52:22;;;;;;;;;;;;;;;17.67;59.54;100075.78;2039282;29;19926;-55
2023/03/23 00:53:22;;;;;;;;;;;;;;;17.66;59.70;100066.03;2038959;29;20032;-55
2023/03/23 00:54:25;;;;;;;;;;;;;;;17.66;59.77;100066.78;2032877;29;20009;-56
2023/03/23 00:55:27;;;;;;;;;;;;;;;17.67;59.72;100067.56;2035223;29;19937;-56
2023/03/23 00:56:29;;;;;;;;;;;;;;;17.67;59.66;100070.31;2037307;29;19931;-55
2023/03/23 00:57:29;;;;;;;;;;;;;;;17.66;59.56;100076.97;2039330;29;19922;-56
2023/03/23 00:58:31;;;;;;;;;;;;;;;17.66;59.72;100066.03;2037209;29;20439;-57
2023/03/23 00:59:32;;;;;;;;;;;;;;;17.66;59.79;100066.03;2026751;29;19931;-55
2023/03/23 01:00:33;;;;;;;;;;;;;;;17.66;59.64;100066.03;2028800;29;19934;-55
2023/03/23 01:01:35;;;;;;;;;;;;;;;17.66;59.72;100055.13;2036633;29;19927;-56
2023/03/23 01:02:40;;;;;;;;;;;;;;;17.66;59.69;100049.66;2037496;29;19926;-56
2023/03/23 01:03:41;;;;;;;;;;;;;;;17.65;59.56;100050.81;2038802;29;20031;-55
2023/03/23 01:04:44;;;;;;;;;;;;;;;17.65;59.82;100042.63;2037579;29;19931;-56
2023/03/23 01:05:46;;;;;;;;;;;;;;;17.65;59.74;100051.59;2039628;29;19937;-55
2023/03/23 01:06:50;;;;;;;;;;;;;;;17.65;59.59;100037.97;2038944;29;19945;-55
2023/03/23 01:07:51;;;;;;;;;;;;;;;17.65;59.51;100037.16;2033679;29;19940;-56
2023/03/23 01:08:53;;;;;;;;;;;;;;;17.66;59.78;100036.00;2036817;29;19931;-56
2023/03/23 01:09:54;;;;;;;;;;;;;;;17.66;59.56;100033.28;2035851;29;19930;-56
2023/03/23 01:11:03;;;;;;;;;;;;;;;17.65;59.73;100034.44;2034327;29;20280;-57
2023/03/23 01:12:04;;;;;;;;;;;;;;;17.64;59.51;100017.31;2039838;29;19970;-55
2023/03/23 01:13:08;;;;;;;;;;;;;;;17.65;59.40;100026.25;2028724;29;19934;-56
2023/03/23 01:14:09;;;;;;;;;;;;;;;17.64;59.77;100014.56;2026328;29;19927;-56
2023/03/23 01:15:14;;;;;;;;;;;;;;;17.64;59.51;100022.78;2036012;29;19978;-55
2023/03/23 01:16:14;;;;;;;;;;;;;;;17.66;59.54;100025.09;2034174;29;20017;-55
2023/03/23 01:17:16;;;;;;;;;;;;;;;17.65;59.50;100021.56;2038153;29;19926;-56
2023/03/23 01:18:17;;;;;;;;;;;;;;;17.65;59.51;100020.78;2039452;29;19931;-56
2023/03/23 01:19:18;;;;;;;;;;;;;;;17.65;59.74;100010.66;2037694;29;19962;-56
2023/03/23 01:20:19;;;;;;;;;;;;;;;17.64;59.73;100013.78;2037558;29;19974;-55
2023/03/23 01:21:21;;;;;;;;;;;;;;;17.65;59.71;100015.34;2037406;29;19990;-56
2023/03/23 01:22:21;;;;;;;;;;;;;;;17.64;59.67;100013.78;2035417;29;19927;-56
2023/03/23 01:23:23;;;;;;;;;;;;;;;17.64;59.73;100020.03;2035645;29;19933;-54
2023/03/23 01:24:24;;;;;;;;;;;;;;;17.64;59.40;100005.59;2038005;29;19927;-56
2023/03/23 01:25:25;;;;;;;;;;;;;;;17.64;59.80;99997.41;2040722;29;20384;-55
2023/03/23 01:26:28;;;;;;;;;;;;;;;17.64;59.61;100011.84;2041367;29;19927;-56
2023/03/23 01:27:30;;;;;;;;;;;;;;;17.63;59.71;100002.09;2038690;29;19927;-54
2023/03/23 01:28:31;;;;;;;;;;;;;;;17.64;59.58;100002.88;2036638;29;20059;-54
2023/03/23 01:29:32;;;;;;;;;;;;;;;17.64;59.72;99997.41;2038993;29;20690;-55
2023/03/23 01:30:33;;;;;;;;;;;;;;;17.64;59.70;100002.88;2027429;29;19927;-55
2023/03/23 01:31:36;;;;;;;;;;;;;;;17.64;59.50;99998.19;2029714;29;19978;-56
2023/03/23 01:32:37;;;;;;;;;;;;;;;17.63;59.66;99999.38;2038384;29;19931;-55
2023/03/23 01:33:39;;;;;;;;;;;;;;;17.63;59.66;99999.38;2039399;29;20006;-56
2023/03/23 01:34:40;;;;;;;;;;;;;;;17.63;59.69;99999.38;2039679;29;19927;-56
2023/03/23 01:35:42;;;;;;;;;;;;;;;17.64;59.78;100000.16;2038282;29;19926;-54
2023/03/23 01:36:43;;;;;;;;;;;;;;;17.64;59.73;100002.88;2027599;29;19954;-55
2023/03/23 01:37:45;;;;;;;;;;;;;;;17.63;59.44;99990.41;2028833;29;20701;-55
2023/03/23 01:38:46;;;;;;;;;;;;;;;17.63;59.63;99993.91;2040028;29;20059;-56
2023/03/23 01:39:48;;;;;;;;;;;;;;;17.63;59.69;99996.63;2039987;29;19927;-55
2023/03/23 01:40:49;;;;;;;;;;;;;;;17.63;59.64;100001.34;2029364;29;20299;-55
2023/03/23 01:41:52;;;;;;;;;;;;;;;17.64;59.69;99991.97;2027097;29;19986;-55
2023/03/23 01:42:55;;;;;;;;;;;;;;;17.62;59.76;100003.28;2028969;29;20014;-56
2023/03/23 01:43:58;;;;;;;;;;;;;;;17.62;59.69;100008.75;2031216;29;19927;-56
2023/03/23 01:45:23;;;;;;;;;;;;;;;17.63;59.68;100004.06;2036524;29;20703;-59
2023/03/23 01:46:26;;;;;;;;;;;;;;;17.62;59.70;100006.00;2027878;29;19923;-55
2023/03/23 01:47:27;;;;;;;;;;;;;;;17.63;59.55;100012.25;2036352;29;20300;-55
2023/03/23 01:48:32;;;;;;;;;;;;;;;17.62;59.84;99997.03;2019873;29;19931;-53
2023/03/23 01:49:36;;;;;;;;;;;;;;;17.63;59.49;99979.50;2027669;29;20396;-55
2023/03/23 01:50:44;;;;;;;;;;;;;;;17.62;59.75;99978.72;2035117;29;19982;-57
2023/03/23 01:51:46;;;;;;;;;;;;;;;17.62;59.71;99983.41;2035930;29;19926;-55
2023/03/23 01:52:48;;;;;;;;;;;;;;;17.62;59.80;99972.47;2037340;29;19934;-56
2023/03/23 01:53:52;;;;;;;;;;;;;;;17.62;59.56;99964.28;2039072;29;19974;-55
2023/03/23 01:54:56;;;;;;;;;;;;;;;17.62;59.64;99986.13;2030704;29;19938;-56
2023/03/23 01:55:58;;;;;;;;;;;;;;;17.62;59.71;99983.41;2030740;29;19926;-56
2023/03/23 01:57:03;;;;;;;;;;;;;;;17.62;59.51;99978.72;2036070;29;20297;-55
2023/03/23 01:58:04;;;;;;;;;;;;;;;17.61;59.49;99979.13;2032682;29;20012;-55
2023/03/23 01:59:07;;;;;;;;;;;;;;;17.62;59.46;99977.94;2029213;29;19933;-55
2023/03/23 02:00:14;;;;;;;;;;;;;;;17.62;59.58;99977.94;2028634;29;19923;-54
2023/03/23 02:01:16;;;;;;;;;;;;;;;17.62;59.45;99977.94;2039459;29;19930;-54
2023/03/23 02:02:17;;;;;;;;;;;;;;;17.61;59.54;99963.53;2040160;29;20008;-54
2023/03/23 02:03:23;;;;;;;;;;;;;;;17.60;59.64;99959.22;2035155;29;19974;-55
2023/03/23 02:04:25;;;;;;;;;;;;;;;17.61;59.33;99958.06;2019719;29;20455;-55
2023/03/23 02:05:29;;;;;;;;;;;;;;;17.61;59.72;99960.81;2029322;29;19971;-55
2023/03/23 02:06:33;;;;;;;;;;;;;;;17.62;59.36;99964.28;2037314;29;19996;-55
2023/03/23 02:07:55;;;;;;;;;;;;;;;17.62;59.69;99956.09;2034466;29;19926;-55
2023/03/23 02:08:56;;;;;;;;;;;;;;;17.61;59.69;99949.88;2030064;29;20396;-56
2023/03/23 02:09:59;;;;;;;;;;;;;;;17.62;59.73;99953.38;2026667;29;20527;-55
2023/03/23 02:11:01;;;;;;;;;;;;;;;17.61;59.66;99962.75;2035100;29;19933;-56
2023/03/23 02:12:05;;;;;;;;;;;;;;;17.60;59.55;99953.78;2036437;29;20343;-55
2023/03/23 02:13:08;;;;;;;;;;;;;;;17.62;59.41;99956.88;2035957;29;19934;-55
2023/03/23 02:14:09;;;;;;;;;;;;;;;17.61;59.63;99965.47;2032120;29;20017;-55
2023/03/23 02:15:11;;;;;;;;;;;;;;;17.61;59.73;99960.03;2037947;29;19926;-55
2023/03/23 02:16:20;;;;;;;;;;;;;;;17.61;59.46;99960.81;2033814;29;19962;-55
2023/03/23 02:17:27;;;;;;;;;;;;;;;17.61;59.82;99957.28;2019840;29;20056;-56
2023/03/23 02:18:34;;;;;;;;;;;;;;;17.61;59.73;99946.38;2028068;29;20570;-55
2023/03/23 02:19:53;;;;;;;;;;;;;;;17.60;59.43;99950.28;2033486;29;20312;-56
2023/03/23 02:21:03;;;;;;;;;;;;;;;17.61;59.73;99951.81;2039235;29;19923;-56
2023/03/23 02:22:23;;;;;;;;;;;;;;;17.61;59.72;99946.38;2039728;29;20009;-56
2023/03/23 02:23:44;;;;;;;;;;;;;;;17.61;59.71;99954.56;2038804;29;19930;-56
2023/03/23 02:24:53;;;;;;;;;;;;;;;17.61;59.80;99954.56;2028225;29;19978;-56
2023/03/23 02:26:02;;;;;;;;;;;;;;;17.59;59.74;99946.78;2030426;29;19937;-55
2023/03/23 02:27:09;;;;;;;;;;;;;;;17.59;59.47;99941.31;2038421;29;19993;-55
2023/03/23 02:28:26;;;;;;;;;;;;;;;17.60;59.41;99942.09;2034362;29;19930;-55
2023/03/23 02:29:33;;;;;;;;;;;;;;;17.60;59.54;99937.41;2034070;29;19927;-55
2023/03/23 02:30:43;;;;;;;;;;;;;;;17.60;59.72;99944.84;2028236;29;20369;-55
2023/03/23 02:31:48;;;;;;;;;;;;;;;17.60;59.73;99947.56;2030804;29;19927;-56
2023/03/23 02:32:59;;;;;;;;;;;;;;;17.59;59.45;99937.81;2038881;29;19923;-55
2023/03/23 02:34:06;;;;;;;;;;;;;;;17.60;59.44;99944.84;2029650;29;19973;-55
2023/03/23 02:35:10;;;;;;;;;;;;;;;17.60;59.71;99944.84;2030189;29;19927;-55
2023/03/23 02:36:14;;;;;;;;;;;;;;;17.59;59.50;99938.59;2033311;29;19933;-54
2023/03/23 02:37:20;;;;;;;;;;;;;;;17.59;59.59;99940.53;2025514;29;19927;-55
2023/03/23 02:38:26;;;;;;;;;;;;;;;17.59;59.43;99926.88;2026406;29;20010;-55
2023/03/23 02:39:30;;;;;;;;;;;;;;;17.59;59.50;99918.69;2023715;29;20442;-56
2023/03/23 02:40:34;;;;;;;;;;;;;;;17.59;59.75;99926.88;2030972;29;19934;-55
2023/03/23 02:41:37;;;;;;;;;;;;;;;17.60;59.65;99934.66;2034519;29;19934;-55
2023/03/23 02:42:41;;;;;;;;;;;;;;;17.60;59.38;99936.66;2035013;29;20021;-55
2023/03/23 02:43:44;;;;;;;;;;;;;;;17.59;59.61;99924.16;2035446;29;20373;-55
2023/03/23 02:44:47;;;;;;;;;;;;;;;17.60;59.64;99925.72;2033389;29;20025;-56
2023/03/23 02:45:48;;;;;;;;;;;;;;;17.59;59.33;99922.22;2039568;29;20274;-56
2023/03/23 02:46:51;;;;;;;;;;;;;;;17.58;59.79;99925.34;2037982;29;19970;-55
2023/03/23 02:47:53;;;;;;;;;;;;;;;17.59;59.64;99932.34;2039841;29;20377;-55
2023/03/23 02:48:56;;;;;;;;;;;;;;;17.59;59.67;99935.06;2037747;29;19931;-55
2023/03/23 02:49:59;;;;;;;;;;;;;;;17.58;59.57;99917.91;2026992;29;20431;-55
2023/03/23 02:51:02;;;;;;;;;;;;;;;17.59;59.68;99929.63;2028771;29;20348;-54
2023/03/23 02:52:04;;;;;;;;;;;;;;;17.59;59.53;99924.16;2032806;29;20038;-56
2023/03/23 02:53:08;;;;;;;;;;;;;;;17.59;59.47;99918.69;2027147;29;20037;-55
2023/03/23 02:54:10;;;;;;;;;;;;;;;17.59;59.67;99926.88;2029808;29;20022;-55
2023/03/23 02:55:13;;;;;;;;;;;;;;;17.59;59.59;99926.88;2038540;29;19933;-55
2023/03/23 02:56:15;;;;;;;;;;;;;;;17.58;59.54;99919.88;2026409;29;19985;-55
2023/03/23 02:57:17;;;;;;;;;;;;;;;17.57;59.44;99916.38;2031532;29;19923;-55
2023/03/23 02:58:19;;;;;;;;;;;;;;;17.58;59.56;99911.69;2035199;29;20393;-56
2023/03/23 02:59:21;;;;;;;;;;;;;;;17.58;59.49;99915.19;2037346;29;19949;-55
2023/03/23 03:00:22;;;;;;;;;;;;;;;17.58;59.71;99906.25;2032164;29;19934;-55
2023/03/23 03:01:41;;;;;;;;;;;;;;;17.58;59.67;99911.69;2031131;29;20010;-55
2023/03/23 03:02:44;;;;;;;;;;;;;;;17.57;59.67;99908.19;2038208;29;20304;-55
2023/03/23 03:03:44;;;;;;;;;;;;;;;17.58;59.55;99908.97;2026765;29;20440;-55
2023/03/23 03:04:49;;;;;;;;;;;;;;;17.57;59.49;99907.41;2024983;29;20342;-56
2023/03/23 03:05:59;;;;;;;;;;;;;;;17.59;59.78;99913.25;2032982;29;19927;-56
2023/03/23 03:07:12;;;;;;;;;;;;;;;17.58;59.68;99908.97;2031857;29;20336;-56
2023/03/23 03:08:19;;;;;;;;;;;;;;;17.57;59.60;99905.47;2031448;29;19934;-55
2023/03/23 03:09:26;;;;;;;;;;;;;;;17.57;59.68;99899.22;2031189;29;19938;-55
2023/03/23 03:10:32;;;;;;;;;;;;;;;17.57;59.46;99902.72;2026496;29;19950;-55
2023/03/23 03:11:33;;;;;;;;;;;;;;;17.57;59.47;99902.72;2034963;29;20009;-55
2023/03/23 03:12:37;;;;;;;;;;;;;;;17.58;59.89;99903.50;2033182;29;19967;-56
2023/03/23 03:13:45;;;;;;;;;;;;;;;17.58;59.52;99900.78;2040226;29;19922;-54
2023/03/23 03:14:52;;;;;;;;;;;;;;;17.57;59.56;99904.69;2039482;29;19929;-56
2023/03/23 03:15:56;;;;;;;;;;;;;;;17.57;59.58;99910.13;2036309;29;19929;-55
2023/03/23 03:17:01;;;;;;;;;;;;;;;17.57;59.37;99904.69;2038430;29;20388;-56
2023/03/23 03:18:06;;;;;;;;;;;;;;;17.57;59.45;99904.69;2036641;29;19934;-55
2023/03/23 03:19:11;;;;;;;;;;;;;;;17.57;59.47;99899.22;2035599;29;19934;-55
2023/03/23 03:20:14;;;;;;;;;;;;;;;17.57;59.49;99904.69;2032067;29;19945;-55
2023/03/23 03:21:25;;;;;;;;;;;;;;;17.57;59.42;99899.22;2036847;29;19922;-55
2023/03/23 03:22:29;;;;;;;;;;;;;;;17.56;59.61;99892.22;2030972;29;20364;-55
2023/03/23 03:23:33;;;;;;;;;;;;;;;17.57;59.48;99894.53;2032064;29;19949;-56
2023/03/23 03:24:37;;;;;;;;;;;;;;;17.57;59.70;99888.31;2036990;29;20545;-54
2023/03/23 03:25:40;;;;;;;;;;;;;;;17.56;59.59;99893.00;2038953;29;19930;-55
2023/03/23 03:26:45;;;;;;;;;;;;;;;17.56;59.69;99890.28;2025450;29;19927;-56
2023/03/23 03:28:07;;;;;;;;;;;;;;;17.56;59.63;99887.56;2035249;29;20558;-55
2023/03/23 03:29:20;;;;;;;;;;;;;;;17.56;59.41;99900.41;2039645;29;20392;-55
2023/03/23 03:30:26;;;;;;;;;;;;;;;17.57;59.67;99899.22;2028746;29;20345;-56
2023/03/23 03:31:30;;;;;;;;;;;;;;;17.57;59.51;99915.59;2027494;29;20021;-55
2023/03/23 03:32:34;;;;;;;;;;;;;;;17.56;59.70;99914.84;2034431;29;19927;-56
2023/03/23 03:33:35;;;;;;;;;;;;;;;17.56;59.59;99914.84;2038513;29;19927;-55
2023/03/23 03:34:36;;;;;;;;;;;;;;;17.55;59.67;99913.28;2034588;29;19966;-54
2023/03/23 03:35:41;;;;;;;;;;;;;;;17.57;59.29;99921.06;2030334;29;20522;-55
2023/03/23 03:36:45;;;;;;;;;;;;;;;17.56;59.38;99920.31;2031191;29;19931;-56
2023/03/23 03:37:47;;;;;;;;;;;;;;;17.57;59.68;99904.69;2028758;29;20017;-56
2023/03/23 03:38:49;;;;;;;;;;;;;;;17.56;59.66;99919.53;2020646;29;19923;-55
2023/03/23 03:39:51;;;;;;;;;;;;;;;17.56;59.68;99922.25;2025934;29;20038;-57
2023/03/23 03:40:52;;;;;;;;;;;;;;;17.56;59.47;99922.25;2036001;29;19945;-59
2023/03/23 03:41:55;;;;;;;;;;;;;;;17.56;59.83;99919.53;2031390;29;20549;-55
2023/03/23 03:42:56;;;;;;;;;;;;;;;17.56;59.33;99909.38;2039164;29;19930;-56
2023/03/23 03:43:57;;;;;;;;;;;;;;;17.57;59.59;99918.31;2040170;29;19926;-56
2023/03/23 03:44:58;;;;;;;;;;;;;;;17.55;59.60;99907.81;2035471;29;20372;-56
2023/03/23 03:45:59;;;;;;;;;;;;;;;17.55;59.59;99910.56;2027121;29;20305;-55
2023/03/23 03:47:00;;;;;;;;;;;;;;;17.56;59.47;99909.38;2032943;29;19958;-55
2023/03/23 03:48:02;;;;;;;;;;;;;;;17.56;59.37;99908.59;2042632;29;20321;-59
2023/03/23 03:49:05;;;;;;;;;;;;;;;17.55;59.39;99907.06;2042174;29;20423;-55
2023/03/23 03:50:09;;;;;;;;;;;;;;;17.56;59.50;99925.75;2036977;29;20011;-56
2023/03/23 03:51:11;;;;;;;;;;;;;;;17.56;59.72;99924.97;2036815;29;20017;-55
2023/03/23 03:52:17;;;;;;;;;;;;;;;17.56;59.73;99927.72;2037597;29;19934;-55
2023/03/23 03:53:19;;;;;;;;;;;;;;;17.55;59.67;99934.38;2032375;29;19942;-56
2023/03/23 03:54:19;;;;;;;;;;;;;;;17.56;59.74;99916.78;2038272;29;19933;-55
2023/03/23 03:55:21;;;;;;;;;;;;;;;17.55;59.66;99918.75;2036215;29;19923;-55
2023/03/23 03:56:23;;;;;;;;;;;;;;;17.55;59.47;99910.56;2028149;29;20377;-55
2023/03/23 03:57:38;;;;;;;;;;;;;;;17.55;59.39;99913.28;2024422;29;19927;-56
2023/03/23 03:58:38;;;;;;;;;;;;;;;17.55;59.61;99913.28;2030895;29;19930;-55
2023/03/23 03:59:48;;;;;;;;;;;;;;;17.55;59.63;99915.25;2038179;29;20419;-56
2023/03/23 04:01:09;;;;;;;;;;;;;;;17.55;59.48;99910.56;2025881;29;19931;-55
2023/03/23 04:02:16;;;;;;;;;;;;;;;17.55;59.59;99909.78;2030460;29;20303;-59
2023/03/23 04:03:17;;;;;;;;;;;;;;;17.55;59.59;99916.00;2027109;29;19927;-55
2023/03/23 04:04:31;;;;;;;;;;;;;;;17.55;59.38;99913.28;2031837;29;19981;-56
2023/03/23 04:05:32;;;;;;;;;;;;;;;17.55;59.67;99909.78;2035307;29;19926;-56
2023/03/23 04:06:35;;;;;;;;;;;;;;;17.54;59.72;99910.97;2037426;29;19930;-55
2023/03/23 04:07:38;;;;;;;;;;;;;;;17.54;59.53;99916.41;2039531;29;20384;-59
2023/03/23 04:08:41;;;;;;;;;;;;;;;17.55;59.53;99917.97;2038408;29;20412;-55
2023/03/23 04:09:42;;;;;;;;;;;;;;;17.54;59.33;99922.66;2022285;29;20483;-54
2023/03/23 04:10:45;;;;;;;;;;;;;;;17.54;59.37;99922.66;2021307;29;19931;-56
2023/03/23 04:11:46;;;;;;;;;;;;;;;17.55;59.78;99917.97;2023683;29;20340;-55
2023/03/23 04:13:07;;;;;;;;;;;;;;;17.54;59.75;99909.00;2033189;29;20328;-55
2023/03/23 04:14:15;;;;;;;;;;;;;;;17.54;59.39;99900.03;2039408;29;19927;-55
2023/03/23 04:15:18;;;;;;;;;;;;;;;17.54;59.46;99902.78;2038787;29;19923;-55
2023/03/23 04:16:21;;;;;;;;;;;;;;;17.54;59.65;99902.78;2029242;29;19974;-55
2023/03/23 04:17:22;;;;;;;;;;;;;;;17.53;59.47;99909.44;2030363;29;19938;-55
2023/03/23 04:18:24;;;;;;;;;;;;;;;17.54;59.60;99905.50;2039701;29;20398;-55
2023/03/23 04:19:27;;;;;;;;;;;;;;;17.54;59.48;99905.50;2039463;29;20399;-55
2023/03/23 04:20:29;;;;;;;;;;;;;;;17.54;59.51;99900.03;2026478;29;19973;-55
2023/03/23 04:21:30;;;;;;;;;;;;;;;17.53;59.39;99904.75;2020178;29;19924;-55
2023/03/23 04:22:32;;;;;;;;;;;;;;;17.54;59.43;99916.41;2026507;29;19970;-55
2023/03/23 04:23:35;;;;;;;;;;;;;;;17.53;59.13;99909.44;2039639;29;19931;-56
2023/03/23 04:24:38;;;;;;;;;;;;;;;17.54;59.70;99910.97;2035571;29;19974;-57
2023/03/23 04:25:43;;;;;;;;;;;;;;;17.53;59.59;99910.22;2027669;29;19927;-55
2023/03/23 04:26:45;;;;;;;;;;;;;;;17.53;59.65;99914.88;2029892;29;19931;-55
2023/03/23 04:27:55;;;;;;;;;;;;;;;17.54;59.53;99914.47;2036871;29;19969;-55
2023/03/23 04:29:05;;;;;;;;;;;;;;;17.53;59.51;99921.13;2027876;29;19923;-56
2023/03/23 04:30:09;;;;;;;;;;;;;;;17.54;59.50;99924.59;2026125;29;19953;-56
2023/03/23 04:31:24;;;;;;;;;;;;;;;17.53;59.44;99929.31;2036223;29;20447;-56
2023/03/23 04:32:28;;;;;;;;;;;;;;;17.53;59.47;99909.44;2027252;29;19935;-54
2023/03/23 04:33:31;;;;;;;;;;;;;;;17.53;59.63;99921.13;2036856;29;19982;-54
2023/03/23 04:34:32;;;;;;;;;;;;;;;17.54;59.58;99916.41;2038655;29;19939;-56
2023/03/23 04:35:35;;;;;;;;;;;;;;;17.52;59.65;99930.47;2039490;29;20009;-56
2023/03/23 04:36:46;;;;;;;;;;;;;;;17.53;59.77;99914.88;2037979;29;19927;-55
2023/03/23 04:37:51;;;;;;;;;;;;;;;17.53;59.40;99926.59;2022453;29;20026;-56
2023/03/23 04:38:55;;;;;;;;;;;;;;;17.53;59.46;99917.63;2021805;29;20007;-56
2023/03/23 04:40:01;;;;;;;;;;;;;;;17.52;59.60;99914.09;2030742;29;19928;-56
2023/03/23 04:41:03;;;;;;;;;;;;;;;17.53;59.41;99917.63;2030667;29;20408;-55
2023/03/23 04:42:29;;;;;;;;;;;;;;;17.52;59.74;99914.09;2033321;29;19926;-55
2023/03/23 04:43:52;;;;;;;;;;;;;;;17.52;59.66;99914.09;2033693;29;20364;-55
2023/03/23 04:45:21;;;;;;;;;;;;;;;17.52;59.71;99924.25;2035771;29;19998;-55
2023/03/23 04:46:23;;;;;;;;;;;;;;;17.53;59.64;99925.81;2024780;29;20322;-57
2023/03/23 04:47:29;;;;;;;;;;;;;;;17.52;59.51;99930.47;2027433;29;19974;-56
2023/03/23 04:48:33;;;;;;;;;;;;;;;17.52;59.70;99924.25;2037353;29;19927;-56
2023/03/23 04:50:01;;;;;;;;;;;;;;;17.52;59.61;99924.25;2033314;29;20285;-56
2023/03/23 04:51:09;;;;;;;;;;;;;;;17.52;59.65;99932.44;2031719;29;19934;-56
2023/03/23 04:52:11;;;;;;;;;;;;;;;17.52;59.35;99929.72;2022784;29;20657;-56
2023/03/23 04:53:25;;;;;;;;;;;;;;;17.52;59.61;99929.72;2027210;29;20559;-56
2023/03/23 04:54:28;;;;;;;;;;;;;;;17.52;59.66;99930.47;2037079;29;19973;-54
2023/03/23 04:55:35;;;;;;;;;;;;;;;17.52;59.63;99924.25;2025970;29;19935;-56
2023/03/23 04:56:37;;;;;;;;;;;;;;;17.51;59.42;99928.94;2030824;29;20359;-57
2023/03/23 04:57:44;;;;;;;;;;;;;;;17.52;59.73;99927.00;2037071;29;20078;-55
2023/03/23 04:59:06;;;;;;;;;;;;;;;17.52;59.37;99929.72;2028635;29;19923;-56
2023/03/23 05:00:14;;;;;;;;;;;;;;;17.52;59.28;99929.72;2029748;29;20436;-56
2023/03/23 05:01:18;;;;;;;;;;;;;;;17.51;59.36;99922.69;2031443;29;19926;-57
2023/03/23 05:02:30;;;;;;;;;;;;;;;17.51;59.41;99928.94;2033319;29;19923;-57
2023/03/23 05:03:34;;;;;;;;;;;;;;;17.52;59.54;99918.81;2028374;29;19927;-61
2023/03/23 05:04:37;;;;;;;;;;;;;;;17.51;59.42;99926.22;2020686;29;19928;-57
2023/03/23 05:05:51;;;;;;;;;;;;;;;17.50;59.41;99932.88;2034532;29;20388;-55
2023/03/23 05:06:53;;;;;;;;;;;;;;;17.51;59.63;99933.63;2027135;29;20378;-55
2023/03/23 05:08:00;;;;;;;;;;;;;;;17.51;59.65;99922.69;2015377;29;19928;-56
2023/03/23 05:09:04;;;;;;;;;;;;;;;17.51;59.46;99928.94;2019257;29;19956;-56
2023/03/23 05:10:09;;;;;;;;;;;;;;;17.51;59.62;99926.22;2031622;29;19927;-55
2023/03/23 05:11:10;;;;;;;;;;;;;;;17.52;59.25;99929.72;2030597;29;20313;-56
2023/03/23 05:12:15;;;;;;;;;;;;;;;17.51;59.46;99930.88;2033578;29;20463;-55
2023/03/23 05:13:28;;;;;;;;;;;;;;;17.52;59.35;99932.44;2038661;29;20017;-56
2023/03/23 05:14:32;;;;;;;;;;;;;;;17.51;59.42;99930.88;2036124;29;19926;-54
2023/03/23 05:15:39;;;;;;;;;;;;;;;17.51;59.65;99944.53;2040226;29;19933;-55
2023/03/23 05:16:48;;;;;;;;;;;;;;;17.51;59.63;99944.53;2031749;29;19935;-56
2023/03/23 05:17:51;;;;;;;;;;;;;;;17.50;59.45;99929.34;2031855;29;19923;-55
2023/03/23 05:18:57;;;;;;;;;;;;;;;17.50;59.51;99945.72;2028207;29;19931;-55
2023/03/23 05:19:58;;;;;;;;;;;;;;;17.50;59.35;99948.47;2031819;29;20390;-55
2023/03/23 05:21:10;;;;;;;;;;;;;;;17.50;59.30;99943.00;2035444;29;19931;-55
2023/03/23 05:22:14;;;;;;;;;;;;;;;17.50;59.58;99940.28;2037568;29;19931;-55
2023/03/23 05:23:24;;;;;;;;;;;;;;;17.50;59.67;99953.91;2037079;29;19926;-56
2023/03/23 05:24:31;;;;;;;;;;;;;;;17.49;59.62;99961.31;2025501;29;19923;-55
2023/03/23 05:25:36;;;;;;;;;;;;;;;17.50;59.50;99964.84;2028822;29;19963;-56
2023/03/23 05:26:41;;;;;;;;;;;;;;;17.49;59.67;99950.41;2037534;29;20387;-56
2023/03/23 05:27:53;;;;;;;;;;;;;;;17.50;59.48;99959.38;2037690;29;19938;-54
2023/03/23 05:29:16;;;;;;;;;;;;;;;17.49;59.63;99966.78;2038918;29;19982;-56
2023/03/23 05:30:29;;;;;;;;;;;;;;;17.50;59.45;99959.38;2031731;29;19926;-56
2023/03/23 05:31:32;;;;;;;;;;;;;;;17.50;59.36;99959.38;2022162;29;20056;-55
2023/03/23 05:32:33;;;;;;;;;;;;;;;17.50;59.45;99965.63;2030863;29;19926;-54
2023/03/23 05:33:48;;;;;;;;;;;;;;;17.50;59.46;99954.69;2039450;29;19922;-56
2023/03/23 05:35:11;;;;;;;;;;;;;;;17.49;59.53;99944.94;2039720;29;19927;-57
2023/03/23 05:36:13;;;;;;;;;;;;;;;17.50;59.54;99953.91;2037471;29;20460;-55